Time;durP1;ratioP1;P1;durP2;ratioP2;P2;SDS_P1;SDS_P2;PMS_P1;PMS_P2;Temp;Humidity;BMP_temperature;BMP_pressure;BME280_temperature;BME280_humidity;BME280_pressure;Samples;Min_cycle;Max_cycle;Signal;HPM_P1;HPM_P2
2022/07/30 00:01:10;;;;;;;5.20;3.63;;;22.10;99.90;;;;;;5088437;28;20107;-74
2022/07/30 00:03:35;;;;;;;6.50;4.10;;;22.10;99.90;;;;;;5089620;28;20067;-73
2022/07/30 00:06:01;;;;;;;5.10;3.37;;;22.10;99.90;;;;;;5088369;28;20086;-74
2022/07/30 00:08:27;;;;;;;7.23;3.80;;;22.00;99.90;;;;;;5091528;28;20374;-74
2022/07/30 00:10:52;;;;;;;7.27;3.50;;;22.00;99.90;;;;;;5109050;28;20032;-74
2022/07/30 00:13:18;;;;;;;5.53;3.70;;;22.00;99.90;;;;;;5093477;28;20032;-74
2022/07/30 00:15:44;;;;;;;6.40;3.93;;;22.00;99.90;;;;;;5091779;28;20056;-73
2022/07/30 00:18:09;;;;;;;6.37;3.70;;;21.90;99.90;;;;;;5093347;28;20036;-73
2022/07/30 00:20:35;;;;;;;6.20;4.07;;;21.90;99.90;;;;;;5091727;28;20474;-74
2022/07/30 00:23:04;;;;;;;7.70;4.00;;;21.90;99.90;;;;;;5093237;28;20020;-75
2022/07/30 00:25:30;;;;;;;6.85;3.33;;;21.90;99.90;;;;;;5092899;28;20024;-73
2022/07/30 00:27:56;;;;;;;4.82;3.47;;;21.90;99.90;;;;;;5091536;28;20081;-73
2022/07/30 00:30:21;;;;;;;5.20;3.63;;;21.90;99.90;;;;;;5091576;28;20429;-73
2022/07/30 00:32:47;;;;;;;5.43;4.10;;;21.90;99.90;;;;;;5092771;28;20032;-74
2022/07/30 00:35:13;;;;;;;7.60;3.90;;;21.80;99.90;;;;;;5092889;28;20330;-74
2022/07/30 00:37:38;;;;;;;6.50;3.53;;;21.80;99.90;;;;;;5091496;28;20547;-74
2022/07/30 00:40:06;;;;;;;6.30;3.80;;;21.80;99.90;;;;;;5093062;28;20052;-74
2022/07/30 00:42:44;;;;;;;8.25;3.45;;;21.80;99.90;;;;;;5091365;28;20394;-74
2022/07/30 00:45:11;;;;;;;5.95;4.18;;;21.70;99.90;;;;;;5108119;28;20039;-74
2022/07/30 00:47:38;;;;;;;5.45;3.60;;;21.70;99.90;;;;;;5092640;28;20487;-74
2022/07/30 00:50:06;;;;;;;10.40;4.15;;;21.70;99.90;;;;;;5092704;28;20501;-74
2022/07/30 00:52:32;;;;;;;6.88;3.88;;;21.60;99.90;;;;;;5091086;28;20024;-74
2022/07/30 00:54:59;;;;;;;6.95;3.90;;;21.60;99.90;;;;;;5092722;28;20040;-74
2022/07/30 00:57:26;;;;;;;6.45;4.05;;;21.70;99.90;;;;;;5092401;28;20034;-74
2022/07/30 00:59:52;;;;;;;8.25;3.83;;;21.60;99.90;;;;;;5092355;28;20020;-74
2022/07/30 01:02:17;;;;;;;6.47;4.00;;;21.60;99.90;;;;;;5092484;28;20031;-72
2022/07/30 01:04:43;;;;;;;5.93;3.63;;;21.60;99.90;;;;;;5092252;28;20032;-73
2022/07/30 01:07:09;;;;;;;5.90;3.55;;;21.60;99.90;;;;;;5092220;28;20544;-74
2022/07/30 01:09:35;;;;;;;7.67;3.57;;;21.60;99.90;;;;;;5092675;28;20107;-73
2022/07/30 01:12:02;;;;;;;6.85;3.40;;;21.60;99.90;;;;;;5092187;28;20047;-74
2022/07/30 01:14:27;;;;;;;6.72;3.80;;;21.60;99.90;;;;;;5092528;28;20031;-74
2022/07/30 01:16:53;;;;;;;5.63;4.00;;;21.60;99.90;;;;;;5092122;28;20035;-74
2022/07/30 01:22:42;;;;;;;4.90;3.53;;;21.60;99.90;;;;;;5092342;28;20109;-74
2022/07/30 01:25:11;;;;;;;7.07;3.80;;;21.50;99.90;;;;;;5092059;28;20047;-73
2022/07/30 01:27:48;;;;;;;6.72;3.55;;;21.50;99.90;;;;;;5107539;28;20169;-73
2022/07/30 01:30:17;;;;;;;6.15;4.03;;;21.50;99.90;;;;;;5091804;28;20020;-73
2022/07/30 01:32:45;;;;;;;5.65;3.30;;;21.50;99.90;;;;;;5099188;28;20494;-74
2022/07/30 01:35:13;;;;;;;4.70;3.67;;;21.60;99.90;;;;;;5108883;28;20027;-73
2022/07/30 01:37:40;;;;;;;5.25;3.50;;;21.60;99.90;;;;;;5111940;28;20059;-74
2022/07/30 01:40:06;;;;;;;7.85;3.85;;;21.60;99.90;;;;;;5112183;28;20077;-74
2022/07/30 01:42:33;;;;;;;8.13;3.53;;;21.50;99.90;;;;;;5112081;28;20027;-74
2022/07/30 01:45:00;;;;;;;5.13;3.33;;;21.60;99.90;;;;;;5111918;28;20133;-73
2022/07/30 01:47:28;;;;;;;5.32;3.78;;;21.50;99.90;;;;;;5111785;28;20043;-73
2022/07/30 01:49:54;;;;;;;6.40;3.75;;;21.50;99.90;;;;;;5111813;28;20360;-74
2022/07/30 01:52:22;;;;;;;6.07;3.65;;;21.40;99.90;;;;;;5111720;28;20050;-73
2022/07/30 01:54:51;;;;;;;5.70;3.33;;;21.40;99.90;;;;;;5110070;28;20040;-72
2022/07/30 01:57:19;;;;;;;5.47;3.55;;;21.40;99.90;;;;;;5111484;28;20466;-72
2022/07/30 01:59:49;;;;;;;5.70;3.70;;;21.40;99.90;;;;;;5111414;28;20428;-74
2022/07/30 02:02:15;;;;;;;5.40;3.65;;;21.40;99.90;;;;;;5110137;28;20099;-74
2022/07/30 02:04:40;;;;;;;5.13;3.63;;;21.40;99.90;;;;;;5111927;28;20057;-74
2022/07/30 02:07:34;;;;;;;6.60;3.77;;;21.30;99.90;;;;;;5109993;28;20478;-73
2022/07/30 02:10:11;;;;;;;5.93;3.97;;;21.30;99.90;;;;;;5110349;28;20035;-74
2022/07/30 02:12:40;;;;;;;;;;;21.30;99.90;;;;;;5111692;27;20041;-73
2022/07/30 02:15:14;;;;;;;5.82;3.75;;;21.20;99.90;;;;;;5111186;28;19915;-74
2022/07/30 02:17:46;;;;;;;5.43;3.80;;;21.20;99.90;;;;;;5109931;28;20423;-74
2022/07/30 02:20:13;;;;;;;9.18;4.30;;;21.20;99.90;;;;;;5111286;28;20024;-74
2022/07/30 02:22:42;;;;;;;5.13;3.55;;;21.20;99.90;;;;;;5109918;28;20035;-73
2022/07/30 02:25:09;;;;;;;7.22;4.13;;;21.20;99.90;;;;;;5111317;28;20110;-73
2022/07/30 02:27:39;;;;;;;6.68;3.83;;;21.10;99.90;;;;;;5111080;28;20066;-74
2022/07/30 02:30:06;;;;;;;6.68;3.78;;;21.10;99.90;;;;;;5111008;28;20687;-74
2022/07/30 02:32:37;;;;;;;6.55;3.80;;;21.10;99.90;;;;;;5109563;28;20066;-74
2022/07/30 02:35:30;;;;;;;6.00;3.75;;;21.10;99.90;;;;;;5109747;28;20123;-74
2022/07/30 02:37:57;;;;;;;5.68;3.60;;;21.20;99.90;;;;;;5107114;28;20127;-73
2022/07/30 02:40:22;;;;;;;;;;;21.20;99.90;;;;;;5110165;28;20024;-74
2022/07/30 02:42:52;;;;;;;5.85;3.30;;;21.20;99.90;;;;;;5109791;28;20258;-73
2022/07/30 02:45:19;;;;;;;7.72;3.30;;;21.20;99.90;;;;;;5111021;28;20062;-73
2022/07/30 02:47:47;;;;;;;6.60;3.45;;;21.20;99.90;;;;;;5109457;28;20027;-73
2022/07/30 02:50:15;;;;;;;5.10;3.22;;;21.20;99.90;;;;;;5111115;28;20497;-73
2022/07/30 02:52:42;;;;;;;5.88;3.65;;;21.30;99.90;;;;;;5110921;28;20027;-74
2022/07/30 02:55:10;;;;;;;6.65;3.38;;;21.20;99.90;;;;;;5110852;28;20043;-73
2022/07/30 02:57:38;;;;;;;5.40;3.47;;;21.20;99.90;;;;;;5109505;28;20016;-73
2022/07/30 03:00:05;;;;;;;6.13;3.50;;;21.30;99.90;;;;;;5110952;28;20031;-74
2022/07/30 03:02:33;;;;;;;5.32;3.33;;;21.20;99.90;;;;;;5109635;28;20088;-74
2022/07/30 03:05:01;;;;;;;8.63;4.20;;;21.30;99.90;;;;;;5110869;28;20047;-73
2022/07/30 03:07:28;;;;;;;5.72;3.50;;;21.30;99.90;;;;;;5110547;28;20043;-72
2022/07/30 03:09:54;;;;;;;;;;;21.30;99.90;;;;;;5109913;28;20051;-74
2022/07/30 03:12:21;;;;;;;5.07;3.35;;;21.30;99.90;;;;;;5109298;28;19990;-74
2022/07/30 03:14:47;;;;;;;8.88;3.80;;;21.30;99.90;;;;;;5109509;28;20061;-74
2022/07/30 03:17:16;;;;;;;7.03;3.53;;;21.30;99.90;;;;;;5109528;28;20034;-73
2022/07/30 03:19:43;;;;;;;6.30;3.30;;;21.30;99.90;;;;;;5109475;28;20494;-74
2022/07/30 03:22:11;;;;;;;4.80;3.10;;;21.40;99.90;;;;;;5109258;28;20032;-74
2022/07/30 03:24:39;;;;;;;6.97;3.42;;;21.40;99.90;;;;;;5109550;28;20035;-74
2022/07/30 03:27:06;;;;;;;4.75;3.10;;;21.40;99.90;;;;;;5110685;28;20034;-74
2022/07/30 03:29:34;;;;;;;5.15;3.33;;;21.40;99.90;;;;;;5109579;28;20055;-74
2022/07/30 03:32:01;;;;;;;5.68;3.13;;;21.30;99.90;;;;;;5109068;28;20126;-74
2022/07/30 03:34:27;;;;;;;;;;;21.30;99.90;;;;;;5111241;28;20125;-74
2022/07/30 03:36:53;;;;;;;5.80;3.13;;;21.30;99.90;;;;;;5110437;28;19912;-74
2022/07/30 03:39:21;;;;;;;6.07;3.58;;;21.40;99.90;;;;;;5110779;28;20057;-73
2022/07/30 03:41:47;;;;;;;5.60;3.22;;;21.40;99.90;;;;;;5108988;28;20038;-73
2022/07/30 03:44:14;;;;;;;5.43;3.25;;;21.50;99.90;;;;;;5113739;28;20478;-73
2022/07/30 03:46:40;;;;;;;5.47;3.15;;;21.50;99.90;;;;;;5113279;28;20035;-73
2022/07/30 03:49:09;;;;;;;6.10;3.17;;;21.50;99.90;;;;;;5112725;28;20034;-73
2022/07/30 03:51:36;;;;;;;5.80;3.38;;;21.50;99.90;;;;;;5114529;28;20387;-74
2022/07/30 03:54:02;;;;;;;6.00;3.10;;;21.60;99.90;;;;;;5112603;28;20040;-74
2022/07/30 03:56:28;;;;;;;5.78;3.20;;;21.60;99.90;;;;;;5114102;28;20534;-74
2022/07/30 03:58:54;;;;;;;6.40;3.50;;;21.60;99.90;;;;;;5113047;28;20127;-74
2022/07/30 04:01:24;;;;;;;6.23;3.03;;;21.60;99.90;;;;;;5112653;28;20107;-73
2022/07/30 04:03:50;;;;;;;6.40;3.42;;;21.70;99.90;;;;;;5114273;28;20062;-74
2022/07/30 04:06:15;;;;;;;5.97;3.70;;;21.60;99.90;;;;;;5113870;28;20071;-74
2022/07/30 04:08:41;;;;;;;5.83;3.80;;;21.70;99.90;;;;;;5112824;28;20062;-73
2022/07/30 04:11:06;;;;;;;6.37;3.43;;;21.60;99.90;;;;;;5113819;28;20469;-74
2022/07/30 04:13:32;;;;;;;6.30;3.57;;;21.60;99.90;;;;;;5114303;28;20382;-74
2022/07/30 04:16:08;;;;;;;5.93;3.70;;;21.60;99.90;;;;;;5112456;28;20119;-74
2022/07/30 04:18:39;;;;;;;6.60;3.45;;;21.60;99.90;;;;;;5112398;28;20081;-74
2022/07/30 04:21:07;;;;;;;11.85;3.47;;;21.70;99.90;;;;;;5114084;28;20162;-74
2022/07/30 04:23:33;;;;;;;5.95;3.15;;;21.60;99.90;;;;;;5114013;28;20032;-73
2022/07/30 04:26:00;;;;;;;5.87;3.53;;;21.70;99.90;;;;;;5113662;28;20497;-73
2022/07/30 04:28:28;;;;;;;4.82;3.38;;;21.70;99.90;;;;;;5113685;28;20024;-73
2022/07/30 04:30:54;;;;;;;7.65;3.20;;;21.70;99.90;;;;;;5113371;28;20038;-73
2022/07/30 04:33:20;;;;;;;5.40;3.65;;;21.70;99.90;;;;;;5113705;28;20059;-74
2022/07/30 04:35:45;;;;;;;7.83;2.97;;;21.70;99.90;;;;;;5111995;28;20494;-74
2022/07/30 04:38:13;;;;;;;8.13;3.67;;;21.80;99.90;;;;;;5112047;28;20165;-74
2022/07/30 04:40:39;;;;;;;5.00;3.25;;;21.80;99.90;;;;;;5112143;28;20490;-74
2022/07/30 04:43:05;;;;;;;3.83;3.05;;;21.80;99.90;;;;;;5113489;28;20134;-74
2022/07/30 04:45:30;;;;;;;4.90;3.00;;;21.90;99.90;;;;;;5113355;28;20114;-74
2022/07/30 04:47:56;;;;;;;7.03;3.00;;;21.80;99.90;;;;;;5111955;28;20059;-74
2022/07/30 04:50:25;;;;;;;4.90;2.93;;;21.80;99.90;;;;;;5113233;28;20031;-74
2022/07/30 04:52:53;;;;;;;7.05;3.03;;;21.80;99.90;;;;;;5112795;28;20043;-74
2022/07/30 04:55:21;;;;;;;8.55;3.30;;;21.80;99.90;;;;;;5110941;28;20066;-74
2022/07/30 04:57:50;;;;;;;6.05;3.15;;;21.80;99.90;;;;;;5112762;28;20019;-74
2022/07/30 05:00:16;;;;;;;4.35;2.80;;;21.90;99.90;;;;;;5112951;28;20028;-75
2022/07/30 05:02:43;;;;;;;6.68;3.38;;;22.00;99.90;;;;;;5112803;28;20541;-74
2022/07/30 05:05:10;;;;;;;;;;;22.00;99.90;;;;;;5113134;28;20054;-74
2022/07/30 05:07:37;;;;;;;6.80;3.38;;;21.90;99.90;;;;;;5112798;28;19973;-74
2022/07/30 05:10:03;;;;;;;5.13;3.05;;;21.90;99.90;;;;;;5111445;28;20031;-74
2022/07/30 05:12:33;;;;;;;5.07;3.22;;;22.00;99.90;;;;;;5112692;28;20102;-74
2022/07/30 05:14:59;;;;;;;5.45;3.42;;;22.00;99.90;;;;;;5112456;28;20032;-73
2022/07/30 05:17:24;;;;;;;8.20;3.23;;;22.10;99.90;;;;;;5110998;28;20322;-73
2022/07/30 05:19:50;;;;;;;7.00;3.27;;;22.10;99.90;;;;;;5112362;28;20439;-72
2022/07/30 05:22:15;;;;;;;5.33;2.90;;;22.10;99.90;;;;;;5112569;28;20026;-74
2022/07/30 05:24:41;;;;;;;6.50;3.20;;;22.10;99.90;;;;;;5112940;28;20054;-74
2022/07/30 05:27:06;;;;;;;4.73;3.27;;;22.10;99.90;;;;;;5112332;28;20044;-74
2022/07/30 05:29:32;;;;;;;4.93;3.27;;;22.10;99.90;;;;;;5111146;28;20088;-74
2022/07/30 05:31:57;;;;;;;5.50;3.23;;;22.10;99.90;;;;;;5112035;28;20035;-75
2022/07/30 05:34:23;;;;;;;7.60;3.33;;;22.20;99.90;;;;;;5112696;28;20023;-73
2022/07/30 05:36:49;;;;;;;7.43;3.50;;;22.20;99.90;;;;;;5112011;28;20036;-73
2022/07/30 05:39:15;;;;;;;5.82;3.42;;;22.20;99.90;;;;;;5110803;28;20082;-73
2022/07/30 05:41:41;;;;;;;5.95;3.08;;;22.20;99.90;;;;;;5111892;28;20055;-74
2022/07/30 05:44:07;;;;;;;6.70;3.00;;;22.20;99.90;;;;;;5110559;28;20063;-74
2022/07/30 05:46:32;;;;;;;7.37;3.30;;;22.30;99.90;;;;;;5112218;28;20430;-74
2022/07/30 05:48:58;;;;;;;7.17;3.60;;;22.20;99.90;;;;;;5110442;28;20059;-75
2022/07/30 05:51:24;;;;;;;5.20;3.20;;;22.30;99.90;;;;;;5112029;28;20406;-73
2022/07/30 05:53:50;;;;;;;4.57;3.10;;;22.30;99.90;;;;;;5111754;28;20482;-75
2022/07/30 05:56:15;;;;;;;4.90;3.22;;;22.40;99.90;;;;;;5110215;28;20076;-73
2022/07/30 05:58:41;;;;;;;5.07;3.30;;;22.50;99.90;;;;;;5111462;28;20408;-74
2022/07/30 06:01:07;;;;;;;7.60;3.70;;;22.50;99.90;;;;;;5110295;28;20023;-73
2022/07/30 06:03:33;;;;;;;4.80;3.30;;;22.60;99.90;;;;;;5111730;28;20451;-74
2022/07/30 06:05:59;;;;;;;6.03;3.22;;;22.60;99.90;;;;;;5110797;27;20031;-74
2022/07/30 06:08:24;;;;;;;5.60;3.20;;;22.60;99.90;;;;;;5111505;28;20042;-73
2022/07/30 06:10:50;;;;;;;5.33;3.27;;;22.60;99.90;;;;;;5111454;28;20386;-74
2022/07/30 06:13:16;;;;;;;7.20;3.43;;;22.70;99.90;;;;;;5111608;28;20073;-74
2022/07/30 06:15:41;;;;;;;4.30;2.93;;;22.90;99.90;;;;;;5111531;28;20031;-74
2022/07/30 06:18:07;;;;;;;4.40;2.97;;;23.00;99.90;;;;;;5111793;28;20059;-74
2022/07/30 06:20:32;;;;;;;5.20;3.20;;;23.10;99.90;;;;;;5111434;28;20032;-74
2022/07/30 06:22:58;;;;;;;4.43;2.80;;;23.10;99.90;;;;;;5110120;28;20030;-73
2022/07/30 06:25:24;;;;;;;5.47;3.30;;;23.10;99.90;;;;;;5111551;28;20024;-74
2022/07/30 06:27:49;;;;;;;6.43;2.90;;;23.10;99.90;;;;;;5111049;28;20024;-74
2022/07/30 06:30:15;;;;;;;3.70;2.77;;;23.20;99.90;;;;;;5111669;28;20032;-74
2022/07/30 06:32:42;;;;;;;4.87;2.93;;;23.20;99.90;;;;;;5110971;28;20038;-74
2022/07/30 06:35:08;;;;;;;4.63;2.90;;;23.30;99.90;;;;;;5109550;28;20038;-74
2022/07/30 06:37:34;;;;;;;4.80;2.90;;;23.40;99.90;;;;;;5110960;28;20031;-74
2022/07/30 06:39:59;;;;;;;6.80;3.63;;;23.40;99.90;;;;;;5111230;28;20387;-74
2022/07/30 06:42:25;;;;;;;6.10;3.33;;;23.50;99.90;;;;;;5109344;28;20030;-74
2022/07/30 06:44:50;;;;;;;5.60;3.10;;;23.60;99.90;;;;;;5109412;28;20023;-75
2022/07/30 06:47:27;;;;;;;7.83;3.13;;;23.80;99.90;;;;;;5110870;28;20596;-75
2022/07/30 06:49:52;;;;;;;5.40;2.95;;;24.00;99.90;;;;;;5110995;28;20387;-74
2022/07/30 06:52:18;;;;;;;4.10;3.10;;;24.20;99.90;;;;;;5111347;28;20031;-74
2022/07/30 06:54:45;;;;;;;5.40;3.40;;;24.30;99.90;;;;;;5111153;28;20050;-75
2022/07/30 06:57:10;;;;;;;5.40;3.55;;;24.40;99.90;;;;;;5110669;28;20495;-74
2022/07/30 06:59:36;;;;;;;5.23;3.17;;;24.50;99.90;;;;;;5111235;28;20040;-74
2022/07/30 07:02:02;;;;;;;5.07;3.25;;;24.60;99.90;;;;;;5110669;28;20035;-75
2022/07/30 07:04:27;;;;;;;4.80;3.33;;;24.70;99.90;;;;;;5109522;28;20390;-74
2022/07/30 07:06:53;;;;;;;6.27;3.33;;;24.80;99.90;;;;;;5110448;28;20036;-74
2022/07/30 07:09:19;;;;;;;8.67;2.87;;;24.80;99.90;;;;;;5110568;28;20460;-73
2022/07/30 07:11:44;;;;;;;6.77;3.20;;;25.00;99.90;;;;;;5110903;28;20035;-75
2022/07/30 07:14:10;;;;;;;5.80;3.00;;;25.10;99.90;;;;;;5110885;28;20114;-74
2022/07/30 07:16:35;;;;;;;5.60;3.20;;;25.30;99.90;;;;;;5109779;28;20433;-74
2022/07/30 07:19:01;;;;;;;5.53;3.23;;;25.40;99.90;;;;;;5115119;28;20024;-74
2022/07/30 07:21:26;;;;;;;7.60;3.90;;;25.50;99.90;;;;;;5114684;28;20035;-74
2022/07/30 07:23:52;;;;;;;7.60;3.27;;;25.50;99.90;;;;;;5113292;28;20486;-75
2022/07/30 07:26:17;;;;;;;7.13;3.50;;;25.60;99.90;;;;;;5114937;28;20732;-75
2022/07/30 07:28:43;;;;;;;5.47;3.33;;;25.70;99.90;;;;;;5114961;28;20430;-75
2022/07/30 07:31:10;;;;;;;6.93;3.60;;;25.70;99.90;;;;;;5114804;28;20152;-75
2022/07/30 07:33:36;;;;;;;5.63;2.97;;;25.70;99.90;;;;;;5113054;28;20031;-74
2022/07/30 07:36:02;;;;;;;;;;;25.70;99.90;;;;;;5114667;27;20036;-74
2022/07/30 07:38:28;;;;;;;5.35;3.35;;;25.60;99.90;;;;;;5114405;28;19915;-74
2022/07/30 07:40:54;;;;;;;6.20;3.40;;;25.60;99.90;;;;;;5114363;28;20031;-73
2022/07/30 07:43:19;;;;;;;9.02;3.42;;;25.70;99.90;;;;;;5114188;28;20031;-74
2022/07/30 07:45:45;;;;;;;7.60;3.70;;;25.80;99.90;;;;;;5114244;28;20084;-74
2022/07/30 07:48:11;;;;;;;7.37;3.40;;;25.90;99.90;;;;;;5114275;28;20031;-75
2022/07/30 07:50:37;;;;;;;5.78;3.30;;;25.90;99.90;;;;;;5114426;28;20106;-74
2022/07/30 07:53:03;;;;;;;8.18;3.95;;;26.00;99.90;;;;;;5113829;28;20553;-75
2022/07/30 07:55:29;;;;;;;7.32;3.40;;;26.10;99.50;;;;;;5112714;28;20383;-75
2022/07/30 07:57:55;;;;;;;5.90;3.00;;;26.10;99.30;;;;;;5113948;28;20067;-74
2022/07/30 08:00:20;;;;;;;4.50;2.63;;;26.10;98.60;;;;;;5113746;28;20024;-74
2022/07/30 08:02:47;;;;;;;6.40;3.43;;;26.20;98.80;;;;;;5113679;28;20065;-75
2022/07/30 08:05:13;;;;;;;6.15;3.15;;;26.30;98.80;;;;;;5113641;28;20034;-74
2022/07/30 08:07:39;;;;;;;6.53;3.38;;;26.50;98.50;;;;;;5113478;28;20459;-75
2022/07/30 08:10:06;;;;;;;4.72;3.28;;;26.60;97.70;;;;;;5112349;28;20028;-74
2022/07/30 08:12:32;;;;;;;7.03;3.33;;;26.60;97.50;;;;;;5113654;28;20028;-74
2022/07/30 08:14:58;;;;;;;5.82;3.47;;;26.70;97.50;;;;;;5113384;28;20538;-74
2022/07/30 08:17:23;;;;;;;5.13;3.13;;;26.80;97.70;;;;;;5113267;28;20110;-75
2022/07/30 08:19:49;;;;;;;5.70;3.37;;;26.80;97.60;;;;;;5113357;28;20375;-75
2022/07/30 08:22:15;;;;;;;6.80;2.97;;;26.80;97.60;;;;;;5113329;28;20032;-75
2022/07/30 08:24:41;;;;;;;5.45;3.45;;;26.80;97.60;;;;;;5112103;28;20036;-75
2022/07/30 08:27:06;;;;;;;4.77;3.57;;;26.90;97.60;;;;;;5113176;28;20478;-75
2022/07/30 08:29:32;;;;;;;5.40;3.17;;;26.90;97.40;;;;;;5111160;28;20059;-76
2022/07/30 08:31:58;;;;;;;6.27;3.23;;;27.10;97.10;;;;;;5113168;28;20031;-75
2022/07/30 08:34:23;;;;;;;4.37;2.97;;;27.40;96.60;;;;;;5113394;28;20295;-75
2022/07/30 08:36:49;;;;;;;3.97;2.83;;;27.60;96.20;;;;;;5112872;28;20024;-75
2022/07/30 08:39:15;;;;;;;5.80;3.60;;;27.70;96.40;;;;;;5112943;28;20027;-75
2022/07/30 08:41:41;;;;;;;7.13;3.20;;;27.90;95.50;;;;;;5112910;28;20256;-75
2022/07/30 08:44:10;;;;;;;6.35;4.28;;;28.20;95.50;;;;;;5111295;28;20020;-74
2022/07/30 08:46:41;;;;;;;4.38;3.20;;;28.40;94.90;;;;;;5112856;28;20032;-74
2022/07/30 08:49:07;;;;;;;6.55;3.53;;;28.60;94.20;;;;;;5113124;28;20459;-74
2022/07/30 08:51:34;;;;;;;6.32;3.08;;;28.60;93.50;;;;;;5112622;28;20024;-73
2022/07/30 08:54:01;;;;;;;5.00;3.55;;;28.40;93.70;;;;;;5112491;28;20097;-74
2022/07/30 08:56:27;;;;;;;5.38;3.10;;;28.30;93.90;;;;;;5112381;28;20073;-73
2022/07/30 08:58:54;;;;;;;5.93;3.33;;;28.30;94.10;;;;;;5112150;28;20441;-74
2022/07/30 09:01:21;;;;;;;8.88;3.30;;;28.20;93.60;;;;;;5111262;28;20046;-74
2022/07/30 09:03:46;;;;;;;5.25;3.40;;;28.30;93.80;;;;;;5110985;28;20030;-74
2022/07/30 09:06:12;;;;;;;7.17;3.03;;;28.50;94.50;;;;;;5112557;28;20095;-75
2022/07/30 09:08:38;;;;;;;5.53;3.20;;;28.80;93.40;;;;;;5111096;28;20463;-75
2022/07/30 09:11:04;;;;;;;6.28;3.25;;;28.80;93.10;;;;;;5110824;28;20098;-74
2022/07/30 09:13:33;;;;;;;9.83;3.47;;;28.80;93.50;;;;;;5112424;28;20032;-74
2022/07/30 09:15:59;;;;;;;6.13;3.22;;;29.00;93.10;;;;;;5112359;28;20088;-74
2022/07/30 09:18:38;;;;;;;5.03;2.90;;;29.30;92.90;;;;;;5112225;28;20459;-74
2022/07/30 09:21:27;;;;;;;5.10;3.40;;;29.50;91.70;;;;;;5112150;28;20098;-74
2022/07/30 09:24:11;;;;;;;5.35;3.17;;;29.00;92.40;;;;;;5112529;28;20073;-75
2022/07/30 09:27:00;;;;;;;5.88;3.22;;;28.80;91.50;;;;;;5112398;28;20020;-75
2022/07/30 09:29:27;;;;;;;9.63;3.30;;;28.70;92.90;;;;;;5112419;28;20028;-75
2022/07/30 09:32:05;;;;;;;5.53;3.13;;;28.90;92.30;;;;;;5110483;28;20032;-75
2022/07/30 09:34:36;;;;;;;4.03;2.85;;;29.00;91.90;;;;;;5110715;28;20027;-75
2022/07/30 09:37:22;;;;;;;5.00;2.72;;;29.10;91.60;;;;;;5111839;28;20032;-75
2022/07/30 09:39:47;;;;;;;8.27;3.35;;;29.20;91.50;;;;;;5111767;28;20120;-73
2022/07/30 09:42:22;;;;;;;3.95;2.72;;;29.50;91.10;;;;;;5111737;28;20066;-64
2022/07/30 09:44:48;;;;;;;6.32;3.08;;;29.60;90.70;;;;;;5111840;28;20031;-65
2022/07/30 09:47:30;;;;;;;;;;;29.40;90.70;;;;;;5112194;28;20039;-66
2022/07/30 09:50:13;;;;;;;5.57;3.00;;;29.20;90.90;;;;;;5110191;28;19945;-66
2022/07/30 09:52:41;;;;;;;4.57;2.53;;;29.30;90.40;;;;;;5111537;28;20034;-63
2022/07/30 09:55:07;;;;;;;5.35;3.05;;;29.30;90.40;;;;;;5111032;28;20059;-63
2022/07/30 09:57:33;;;;;;;4.07;2.67;;;29.30;90.30;;;;;;5111068;28;20020;-64
2022/07/30 10:00:16;;;;;;;5.32;3.00;;;28.90;90.30;;;;;;5111051;28;20061;-65
2022/07/30 10:02:42;;;;;;;6.28;2.90;;;28.60;90.60;;;;;;5110985;28;20038;-68
2022/07/30 10:05:08;;;;;;;6.90;3.37;;;28.20;90.70;;;;;;5110833;28;20118;-65
2022/07/30 10:07:35;;;;;;;4.45;2.60;;;27.80;91.10;;;;;;5110826;28;20076;-65
2022/07/30 10:10:01;;;;;;;6.15;2.60;;;27.70;91.10;;;;;;5109810;28;20482;-65
2022/07/30 10:12:27;;;;;;;8.40;2.80;;;27.70;91.40;;;;;;5110933;28;20119;-65
2022/07/30 10:14:54;;;;;;;6.88;2.60;;;27.70;91.60;;;;;;5110869;27;20024;-66
2022/07/30 10:17:21;;;;;;;3.80;2.97;;;27.70;91.60;;;;;;5110977;28;20062;-67
2022/07/30 10:19:47;;;;;;;;;;;27.90;91.60;;;;;;5111948;28;20483;-66
2022/07/30 10:22:13;;;;;;;4.38;2.78;;;28.20;91.80;;;;;;5111301;28;20007;-65
2022/07/30 10:24:39;;;;;;;4.88;2.67;;;28.60;90.70;;;;;;5111644;28;20104;-66
2022/07/30 10:27:08;;;;;;;5.60;3.70;;;29.20;90.30;;;;;;5103046;28;20493;-66
2022/07/30 10:29:37;;;;;;;3.85;2.50;;;29.30;90.40;;;;;;5097537;28;20028;-65
2022/07/30 10:32:03;;;;;;;5.22;3.20;;;29.50;90.10;;;;;;5106931;28;20016;-65
2022/07/30 10:34:31;;;;;;;4.82;3.05;;;29.60;90.10;;;;;;5110343;28;20530;-66
2022/07/30 10:37:01;;;;;;;4.70;2.92;;;29.50;89.60;;;;;;5090576;28;20035;-65
2022/07/30 10:39:30;;;;;;;5.80;3.35;;;29.70;89.30;;;;;;5091149;28;20115;-65
2022/07/30 10:42:20;;;;;;;3.67;2.78;;;30.00;88.80;;;;;;5090652;28;20028;-66
2022/07/30 10:44:57;;;;;;;5.32;2.75;;;30.30;88.60;;;;;;5106538;28;20040;-66
2022/07/30 10:47:24;;;;;;;4.35;3.17;;;30.50;87.50;;;;;;5111330;28;20356;-66
2022/07/30 10:50:13;;;;;;;7.85;2.90;;;30.30;86.00;;;;;;5110858;28;20043;-66
2022/07/30 10:52:49;;;;;;;6.57;2.88;;;30.50;85.10;;;;;;5110144;28;20127;-65
2022/07/30 10:55:17;;;;;;;4.47;3.03;;;30.90;85.10;;;;;;5110346;28;20559;-65
2022/07/30 10:58:11;;;;;;;4.47;3.08;;;30.50;85.10;;;;;;5110457;28;20736;-65
2022/07/30 11:00:43;;;;;;;6.03;3.47;;;30.10;86.50;;;;;;5104731;28;20216;-65
2022/07/30 11:03:27;;;;;;;4.55;3.10;;;29.90;86.40;;;;;;5089994;28;20020;-64
2022/07/30 11:06:26;;;;;;;6.65;3.03;;;30.10;87.90;;;;;;5105506;28;20507;-64
2022/07/30 11:08:51;;;;;;;4.97;3.20;;;30.70;85.80;;;;;;5078206;28;20485;-64
2022/07/30 11:11:20;;;;;;;5.37;3.37;;;31.00;84.20;;;;;;5089891;28;20120;-64
2022/07/30 11:14:01;;;;;;;6.50;2.80;;;30.90;83.10;;;;;;5090703;28;20078;-65
2022/07/30 11:16:32;;;;;;;4.75;3.00;;;30.90;83.10;;;;;;5090182;28;20040;-65
2022/07/30 11:19:06;;;;;;;6.40;3.20;;;30.80;82.90;;;;;;5090436;28;20089;-63
2022/07/30 11:21:32;;;;;;;4.18;3.08;;;30.90;82.40;;;;;;5090252;28;20079;-65
2022/07/30 11:23:58;;;;;;;4.43;3.22;;;30.90;82.20;;;;;;5099602;28;20032;-65
2022/07/30 11:26:48;;;;;;;4.03;3.20;;;30.60;83.40;;;;;;5110495;28;20039;-65
2022/07/30 11:29:39;;;;;;;6.88;3.50;;;30.60;83.00;;;;;;5098398;28;20036;-64
2022/07/30 11:32:27;;;;;;;5.18;3.13;;;30.90;82.40;;;;;;5110011;28;20023;-64
2022/07/30 11:35:11;;;;;;;3.85;2.65;;;30.90;81.80;;;;;;5110346;28;20071;-64
2022/07/30 11:38:10;;;;;;;4.43;2.95;;;31.30;82.00;;;;;;5110510;28;20019;-64
2022/07/30 11:41:02;;;;;;;5.78;3.13;;;31.30;81.10;;;;;;5110348;28;20032;-64
2022/07/30 11:43:31;;;;;;;6.22;3.20;;;31.50;80.30;;;;;;5126140;28;20093;-66
2022/07/30 11:46:13;;;;;;;7.32;3.03;;;31.70;79.80;;;;;;5110752;28;20043;-65
2022/07/30 11:48:41;;;;;;;4.25;3.20;;;31.80;78.90;;;;;;5111049;28;20452;-65
2022/07/30 11:51:07;;;;;;;4.07;2.78;;;31.80;79.30;;;;;;5110788;28;20525;-64
2022/07/30 11:53:33;;;;;;;;;;;32.00;79.10;;;;;;5126804;28;20044;-64
2022/07/30 11:56:00;;;;;;;7.03;2.97;;;31.50;78.60;;;;;;5108904;28;19956;-64
2022/07/30 11:58:33;;;;;;;5.18;3.28;;;31.40;78.90;;;;;;5109030;28;20059;-65
2022/07/30 12:01:02;;;;;;;4.57;3.10;;;31.50;79.20;;;;;;5126110;28;20027;-65
2022/07/30 12:03:32;;;;;;;4.25;2.83;;;31.50;78.50;;;;;;5110734;28;20482;-65
2022/07/30 12:06:12;;;;;;;4.30;3.08;;;31.30;77.90;;;;;;5112759;28;20044;-66
2022/07/30 12:08:42;;;;;;;5.65;3.20;;;31.20;77.90;;;;;;5114310;28;20482;-66
2022/07/30 12:11:09;;;;;;;5.15;3.20;;;31.10;78.40;;;;;;5113653;28;20663;-66
2022/07/30 12:13:36;;;;;;;8.20;3.47;;;31.10;79.10;;;;;;5113640;28;20095;-65
2022/07/30 12:16:08;;;;;;;4.80;2.92;;;31.10;78.70;;;;;;5112875;28;20040;-65
2022/07/30 12:18:33;;;;;;;5.65;3.10;;;30.90;78.30;;;;;;5113781;27;20024;-66
2022/07/30 12:21:01;;;;;;;5.55;3.67;;;30.70;78.40;;;;;;5113203;28;20119;-68
2022/07/30 12:23:29;;;;;;;4.35;2.95;;;30.70;78.40;;;;;;5113243;28;20103;-66
2022/07/30 12:25:55;;;;;;;5.18;3.22;;;30.50;78.00;;;;;;5113032;28;20115;-66
2022/07/30 12:28:30;;;;;;;5.03;3.40;;;30.50;78.00;;;;;;5111344;28;20092;-65
2022/07/30 12:30:57;;;;;;;4.68;3.40;;;30.40;78.30;;;;;;5113409;28;20055;-65
2022/07/30 12:33:23;;;;;;;5.05;3.05;;;30.40;79.40;;;;;;5113263;28;20092;-65
2022/07/30 12:35:52;;;;;;;5.38;2.90;;;30.50;80.00;;;;;;5113000;28;20460;-64
2022/07/30 12:38:19;;;;;;;5.22;2.97;;;30.60;78.90;;;;;;5112900;28;20043;-65
2022/07/30 12:41:05;;;;;;;4.80;3.10;;;30.50;79.00;;;;;;5113101;28;20019;-65
2022/07/30 12:43:46;;;;;;;6.15;2.80;;;30.10;79.10;;;;;;5112860;28;20356;-66
2022/07/30 12:46:19;;;;;;;5.57;3.10;;;30.00;78.80;;;;;;5112791;28;20031;-65
2022/07/30 12:48:53;;;;;;;4.13;2.90;;;30.00;78.80;;;;;;5113127;28;20042;-64
2022/07/30 12:51:21;;;;;;;6.00;3.30;;;30.10;78.80;;;;;;5111368;28;20034;-64
2022/07/30 12:53:47;;;;;;;4.20;2.90;;;30.10;79.20;;;;;;5112386;27;20048;-64
2022/07/30 12:56:15;;;;;;;4.43;3.15;;;30.00;79.90;;;;;;5112571;28;20057;-65
2022/07/30 12:58:41;;;;;;;4.65;3.00;;;30.00;80.40;;;;;;5112781;28;20482;-65